createdAt,value
2022-07-29T00:00:19.698Z,14.84
2022-07-29T00:03:07.355Z,14.74
2022-07-29T00:05:54.978Z,14.74
2022-07-29T00:08:42.610Z,14.80
2022-07-29T00:11:30.140Z,14.77
2022-07-29T00:14:17.541Z,14.67
2022-07-29T00:17:04.999Z,14.53
2022-07-29T00:19:52.453Z,14.34
2022-07-29T00:22:40.895Z,14.19
2022-07-29T00:25:28.417Z,14.13
2022-07-29T00:28:15.765Z,14.06
2022-07-29T00:31:03.367Z,14.10
2022-07-29T00:33:51.011Z,14.17
2022-07-29T00:36:38.338Z,14.25
2022-07-29T00:39:26.050Z,14.28
2022-07-29T00:42:15.189Z,14.24
2022-07-29T00:45:02.698Z,14.26
2022-07-29T00:47:50.540Z,14.29
2022-07-29T00:50:38.596Z,14.31
2022-07-29T00:53:27.290Z,14.28
2022-07-29T00:56:14.947Z,14.26
2022-07-29T00:59:02.517Z,14.29
2022-07-29T01:01:50.336Z,14.31
2022-07-29T01:04:37.762Z,14.34
2022-07-29T01:07:26.684Z,14.29
2022-07-29T01:10:15.875Z,14.16
2022-07-29T01:13:04.179Z,14.11
2022-07-29T01:16:01.843Z,14.00
2022-07-29T01:18:51.339Z,13.94
2022-07-29T01:21:57.426Z,13.93
2022-07-29T01:25:08.950Z,13.91
2022-07-29T01:28:33.010Z,13.87
2022-07-29T01:31:25.309Z,13.91
2022-07-29T01:34:16.497Z,13.93
2022-07-29T01:37:13.033Z,14.03
2022-07-29T01:40:01.761Z,14.08
2022-07-29T01:42:52.329Z,14.06
2022-07-29T01:46:01.667Z,13.97
2022-07-29T01:51:34.594Z,13.83
2022-07-29T01:54:24.713Z,13.75
2022-07-29T01:57:15.842Z,13.64
2022-07-29T02:00:02.471Z,13.62
2022-07-29T02:02:50.526Z,13.63
2022-07-29T02:05:38.939Z,13.62
2022-07-29T02:08:27.257Z,13.56
2022-07-29T02:11:14.762Z,13.58
2022-07-29T02:14:02.880Z,13.52
2022-07-29T02:16:52.241Z,13.55
2022-07-29T02:19:40.122Z,13.51
2022-07-29T02:22:30.867Z,13.47
2022-07-29T02:25:18.898Z,13.43
2022-07-29T02:28:07.866Z,13.45
2022-07-29T02:30:56.968Z,13.38
2022-07-29T02:33:44.594Z,13.36
2022-07-29T02:36:32.721Z,13.31
2022-07-29T02:39:20.527Z,13.35
2022-07-29T02:42:09.946Z,13.44
2022-07-29T02:44:58.121Z,13.51
2022-07-29T02:47:48.804Z,13.59
2022-07-29T02:50:39.514Z,13.67
2022-07-29T02:53:28.073Z,13.72
2022-07-29T02:56:17.169Z,13.77
2022-07-29T02:59:06.932Z,13.81
2022-07-29T03:01:55.600Z,13.86
2022-07-29T03:04:44.961Z,13.94
2022-07-29T03:07:32.585Z,14.00
2022-07-29T03:10:20.689Z,14.01
2022-07-29T03:13:09.011Z,14.04
2022-07-29T03:15:56.785Z,14.08
2022-07-29T03:18:44.265Z,14.12
2022-07-29T03:21:31.858Z,14.17
2022-07-29T03:24:33.032Z,14.26
2022-07-29T03:27:20.834Z,14.36
2022-07-29T03:30:09.078Z,14.45
2022-07-29T03:32:57.186Z,14.59
2022-07-29T03:35:45.449Z,14.71
2022-07-29T03:38:34.187Z,14.87
2022-07-29T03:41:22.757Z,14.98
2022-07-29T03:44:10.914Z,15.09
2022-07-29T03:46:59.785Z,15.16
2022-07-29T03:49:48.898Z,15.16
2022-07-29T03:52:36.769Z,15.18
2022-07-29T03:55:24.594Z,15.21
2022-07-29T03:58:13.352Z,15.29
2022-07-29T04:01:01.216Z,15.35
2022-07-29T04:03:48.637Z,15.45
2022-07-29T04:06:48.402Z,15.57
2022-07-29T04:09:36.062Z,15.75
2022-07-29T04:12:23.472Z,15.93
2022-07-29T04:15:11.464Z,16.02
2022-07-29T04:17:59.027Z,16.12
2022-07-29T04:20:46.548Z,16.18
2022-07-29T04:23:36.425Z,16.24
2022-07-29T04:26:25.641Z,16.27
2022-07-29T04:29:13.160Z,16.31
2022-07-29T04:32:00.616Z,16.36
2022-07-29T04:34:47.881Z,16.52
2022-07-29T04:37:35.143Z,16.70
2022-07-29T04:40:22.433Z,16.86
2022-07-29T04:43:10.094Z,16.98
2022-07-29T04:45:59.493Z,17.18
2022-07-29T04:48:48.952Z,17.40
2022-07-29T04:51:36.776Z,17.57
2022-07-29T04:54:25.533Z,17.76
2022-07-29T04:57:13.016Z,17.96
2022-07-29T05:00:00.871Z,18.14
2022-07-29T05:02:48.195Z,18.27
2022-07-29T05:05:35.666Z,18.41
2022-07-29T05:08:22.820Z,18.53
2022-07-29T05:11:11.275Z,18.62
2022-07-29T05:13:59.279Z,18.69
2022-07-29T05:16:46.592Z,18.78
2022-07-29T05:19:34.071Z,18.85
2022-07-29T05:22:24.711Z,18.96
2022-07-29T05:25:12.167Z,19.11
2022-07-29T05:27:59.569Z,19.24
2022-07-29T05:30:47.106Z,19.38
2022-07-29T05:33:37.119Z,19.48
2022-07-29T05:36:23.417Z,19.58
2022-07-29T05:39:11.329Z,19.72
2022-07-29T05:41:58.657Z,19.86
2022-07-29T05:44:45.930Z,20.00
2022-07-29T05:47:33.257Z,20.12
2022-07-29T05:50:20.586Z,20.24
2022-07-29T05:53:20.158Z,20.39
2022-07-29T05:55:59.752Z,20.51
2022-07-29T05:58:47.072Z,20.62
2022-07-29T06:01:34.674Z,20.72
2022-07-29T06:04:23.894Z,20.78
2022-07-29T06:07:12.476Z,20.89
2022-07-29T06:09:59.498Z,21.06
2022-07-29T06:12:46.987Z,21.14
2022-07-29T06:15:34.682Z,21.23
2022-07-29T06:18:24.097Z,21.29
2022-07-29T06:21:12.154Z,21.31
2022-07-29T06:23:59.665Z,21.33
2022-07-29T06:26:48.076Z,21.39
2022-07-29T06:29:35.816Z,21.44
2022-07-29T06:32:27.367Z,21.56
2022-07-29T06:35:39.043Z,21.65
2022-07-29T06:38:01.387Z,21.72
2022-07-29T06:41:06.366Z,21.76
2022-07-29T06:43:54.506Z,21.77
2022-07-29T06:46:42.984Z,21.85
2022-07-29T06:49:31.108Z,21.93
2022-07-29T06:52:18.666Z,21.98
2022-07-29T06:55:06.539Z,22.05
2022-07-29T06:57:54.160Z,22.11
2022-07-29T07:00:41.655Z,22.17
2022-07-29T07:03:28.809Z,22.28
2022-07-29T07:06:15.975Z,22.39
2022-07-29T07:09:03.518Z,22.50
2022-07-29T07:11:51.288Z,22.63
2022-07-29T07:14:38.663Z,22.70
2022-07-29T07:17:26.039Z,22.71
2022-07-29T07:20:13.673Z,22.74
2022-07-29T07:23:01.555Z,22.76
2022-07-29T07:25:49.064Z,22.88
2022-07-29T07:28:36.392Z,22.92
2022-07-29T07:31:23.816Z,22.91
2022-07-29T07:34:11.335Z,23.01
2022-07-29T07:36:58.464Z,23.18
2022-07-29T07:39:45.775Z,23.27
2022-07-29T07:42:33.399Z,23.32
2022-07-29T07:45:20.825Z,23.41
2022-07-29T07:48:08.183Z,23.42
2022-07-29T07:50:55.570Z,23.44
2022-07-29T07:53:43.412Z,23.48
2022-07-29T07:56:35.154Z,23.62
2022-07-29T07:59:20.159Z,23.78
2022-07-29T08:02:08.350Z,23.96
2022-07-29T08:04:55.576Z,24.04
2022-07-29T08:07:43.384Z,24.12
2022-07-29T08:10:50.054Z,24.18
2022-07-29T08:13:38.865Z,24.17
2022-07-29T08:16:26.369Z,24.19
2022-07-29T08:19:13.984Z,24.21
2022-07-29T08:22:01.447Z,24.32
2022-07-29T08:24:50.199Z,24.43
2022-07-29T08:27:45.003Z,24.53
2022-07-29T08:30:26.958Z,24.45
2022-07-29T08:33:14.006Z,24.44
2022-07-29T08:36:01.583Z,24.54
2022-07-29T08:38:50.713Z,24.79
2022-07-29T08:41:38.576Z,24.89
2022-07-29T08:44:31.063Z,24.90
2022-07-29T08:47:18.952Z,25.06
2022-07-29T08:50:06.719Z,25.21
2022-07-29T08:52:59.385Z,25.37
2022-07-29T08:55:52.223Z,25.46
2022-07-29T08:58:39.864Z,25.62
2022-07-29T09:01:35.972Z,25.85
2022-07-29T09:04:22.698Z,25.96
2022-07-29T09:07:11.391Z,25.94
2022-07-29T09:09:59.105Z,26.04
2022-07-29T09:12:47.160Z,26.18
2022-07-29T09:15:34.847Z,26.34
2022-07-29T09:18:39.577Z,26.45
2022-07-29T09:21:45.727Z,26.43
2022-07-29T09:24:41.912Z,26.51
2022-07-29T09:27:30.115Z,26.59
2022-07-29T09:30:28.855Z,26.54
2022-07-29T09:33:06.769Z,26.58
2022-07-29T09:36:05.879Z,26.49
2022-07-29T09:39:04.241Z,26.43
2022-07-29T09:41:56.265Z,26.45
2022-07-29T09:44:49.648Z,26.58
2022-07-29T09:50:39.633Z,26.69
2022-07-29T09:53:38.491Z,26.62
2022-07-29T09:56:42.899Z,26.60
2022-07-29T09:59:30.092Z,26.66
2022-07-29T10:02:23.657Z,26.86
2022-07-29T10:05:10.769Z,26.96
2022-07-29T10:07:58.103Z,27.04
2022-07-29T10:10:45.657Z,26.98
2022-07-29T10:13:33.016Z,27.07
2022-07-29T10:16:20.859Z,27.24
2022-07-29T10:19:08.695Z,27.44
2022-07-29T10:21:58.142Z,27.39
2022-07-29T10:24:46.096Z,27.40
2022-07-29T10:27:33.544Z,27.45
2022-07-29T10:30:22.480Z,27.65
2022-07-29T10:33:13.567Z,27.65
2022-07-29T10:36:14.321Z,27.67
2022-07-29T10:39:03.434Z,27.87
2022-07-29T10:42:33.923Z,28.11
2022-07-29T10:45:10.145Z,28.23
2022-07-29T10:48:07.918Z,28.18
2022-07-29T10:51:07.177Z,28.09
2022-07-29T10:53:55.313Z,28.26
2022-07-29T10:56:43.097Z,28.47
2022-07-29T10:59:36.371Z,28.64
2022-07-29T11:02:45.074Z,28.83
2022-07-29T11:05:40.791Z,28.97
2022-07-29T11:08:26.421Z,28.96
2022-07-29T11:11:31.456Z,29.00
2022-07-29T11:14:26.571Z,29.15
2022-07-29T11:17:10.258Z,29.33
2022-07-29T11:20:33.959Z,29.38
2022-07-29T11:26:18.872Z,29.08
2022-07-29T11:29:09.394Z,29.00
2022-07-29T11:32:01.695Z,28.70
2022-07-29T11:34:50.256Z,28.36
2022-07-29T11:37:45.977Z,28.24
2022-07-29T11:40:26.552Z,28.45
2022-07-29T11:43:15.457Z,28.66
2022-07-29T11:46:02.816Z,28.77
2022-07-29T11:48:52.020Z,28.89
2022-07-29T11:51:48.729Z,29.16
2022-07-29T11:54:32.475Z,29.42
2022-07-29T11:57:22.953Z,29.64
2022-07-29T12:00:14.662Z,29.72
2022-07-29T12:03:05.510Z,29.97
2022-07-29T12:05:53.096Z,30.20
2022-07-29T12:08:43.987Z,30.20
2022-07-29T12:11:31.888Z,30.17
2022-07-29T12:14:35.487Z,29.35
2022-07-29T12:17:36.856Z,29.35
2022-07-29T12:20:29.657Z,29.19
2022-07-29T12:23:19.001Z,28.93
2022-07-29T12:26:10.755Z,28.86
2022-07-29T12:28:57.490Z,29.10
2022-07-29T12:31:47.668Z,29.10
2022-07-29T12:34:36.872Z,29.47
2022-07-29T12:37:41.335Z,30.19
2022-07-29T12:40:16.064Z,30.19
2022-07-29T12:43:11.624Z,30.16
2022-07-29T12:45:59.729Z,30.09
2022-07-29T12:48:47.599Z,30.06
2022-07-29T12:54:19.959Z,30.38
2022-07-29T12:57:07.548Z,30.23
2022-07-29T13:00:12.029Z,30.02
2022-07-29T13:03:00.835Z,29.73
2022-07-29T13:05:49.582Z,29.65
2022-07-29T13:08:37.149Z,29.60
2022-07-29T13:11:47.940Z,29.34
2022-07-29T13:14:45.696Z,28.81
2022-07-29T13:17:34.860Z,28.17
2022-07-29T13:20:25.497Z,27.88
2022-07-29T13:23:12.578Z,27.69
2022-07-29T13:26:03.010Z,27.74
2022-07-29T13:28:50.874Z,28.02
2022-07-29T13:31:38.401Z,28.76
2022-07-29T13:34:25.666Z,29.34
2022-07-29T13:37:13.474Z,30.62
2022-07-29T13:40:03.152Z,31.95
2022-07-29T13:42:50.631Z,32.47
2022-07-29T13:45:38.452Z,31.89
2022-07-29T13:48:25.882Z,30.89
2022-07-29T13:51:13.297Z,29.75
2022-07-29T13:54:01.409Z,29.02
2022-07-29T13:56:50.225Z,28.23
2022-07-29T13:59:37.704Z,28.23
2022-07-29T14:02:26.376Z,27.83
2022-07-29T14:05:14.291Z,27.57
2022-07-29T14:08:02.169Z,27.41
2022-07-29T14:10:49.737Z,27.51
2022-07-29T14:13:38.778Z,27.73
2022-07-29T14:16:27.430Z,27.98
2022-07-29T14:19:14.993Z,28.14
2022-07-29T14:22:03.019Z,28.37
2022-07-29T14:24:50.905Z,29.16
2022-07-29T14:27:39.354Z,30.31
2022-07-29T14:30:28.473Z,30.80
2022-07-29T14:33:16.208Z,32.26
2022-07-29T14:36:03.848Z,33.74
2022-07-29T14:38:50.976Z,34.89
2022-07-29T14:41:39.257Z,35.43
2022-07-29T14:44:28.370Z,34.28
2022-07-29T14:47:16.058Z,33.47
2022-07-29T14:50:03.910Z,34.23
2022-07-29T14:52:51.618Z,35.32
2022-07-29T14:55:38.757Z,35.98
2022-07-29T14:58:26.057Z,36.58
2022-07-29T15:01:13.965Z,37.10
2022-07-29T15:04:01.400Z,37.20
2022-07-29T15:06:48.689Z,36.83
2022-07-29T15:09:36.279Z,36.82
2022-07-29T15:12:25.097Z,36.78
2022-07-29T15:15:12.313Z,37.13
2022-07-29T15:18:00.153Z,37.27
2022-07-29T15:20:47.849Z,37.33
2022-07-29T15:23:39.849Z,37.30
2022-07-29T15:26:27.379Z,37.25
2022-07-29T15:29:15.425Z,37.44
2022-07-29T15:32:03.633Z,37.62
2022-07-29T15:34:51.106Z,37.81
2022-07-29T15:37:48.682Z,37.72
2022-07-29T15:40:28.583Z,37.23
2022-07-29T15:43:16.312Z,36.93
2022-07-29T15:46:21.793Z,36.63
2022-07-29T15:49:09.750Z,36.67
2022-07-29T15:51:59.946Z,36.86
2022-07-29T15:54:46.458Z,36.82
2022-07-29T15:57:33.832Z,36.83
2022-07-29T16:00:22.984Z,36.94
2022-07-29T16:03:09.879Z,36.80
2022-07-29T16:05:57.394Z,36.46
2022-07-29T16:08:44.945Z,36.12
2022-07-29T16:11:32.640Z,35.84
2022-07-29T16:14:20.748Z,35.88
2022-07-29T16:17:08.762Z,34.48
2022-07-29T16:19:58.360Z,33.04
2022-07-29T16:22:46.120Z,32.61
2022-07-29T16:25:58.461Z,31.69
2022-07-29T16:28:23.127Z,30.88
2022-07-29T16:31:11.043Z,30.06
2022-07-29T16:34:00.193Z,29.53
2022-07-29T16:36:48.012Z,29.10
2022-07-29T16:39:35.853Z,28.78
2022-07-29T16:42:44.407Z,28.57
2022-07-29T16:45:12.654Z,28.16
2022-07-29T16:48:01.240Z,28.16
2022-07-29T16:50:48.913Z,27.80
2022-07-29T16:53:36.625Z,27.43
2022-07-29T16:56:25.080Z,27.10
2022-07-29T16:59:12.625Z,26.75
2022-07-29T17:02:01.690Z,26.43
2022-07-29T17:04:49.873Z,26.05
2022-07-29T17:07:37.521Z,25.77
2022-07-29T17:10:24.757Z,25.55
2022-07-29T17:13:14.131Z,25.37
2022-07-29T17:16:01.558Z,25.29
2022-07-29T17:18:49.144Z,25.19
2022-07-29T17:21:36.644Z,25.06
2022-07-29T17:24:25.513Z,24.86
2022-07-29T17:27:13.241Z,24.69
2022-07-29T17:30:00.578Z,24.54
2022-07-29T17:32:47.946Z,24.43
2022-07-29T17:35:54.377Z,24.35
2022-07-29T17:38:41.770Z,24.31
2022-07-29T17:41:29.315Z,24.22
2022-07-29T17:44:17.041Z,24.11
2022-07-29T17:47:05.154Z,24.02
2022-07-29T17:49:53.195Z,23.89
2022-07-29T17:52:40.945Z,23.77
2022-07-29T17:55:28.115Z,23.69
2022-07-29T17:58:15.821Z,23.63
2022-07-29T18:01:03.324Z,23.63
2022-07-29T18:03:51.193Z,23.63
2022-07-29T18:06:38.450Z,23.56
2022-07-29T18:09:26.003Z,23.51
2022-07-29T18:12:13.626Z,23.42
2022-07-29T18:15:00.644Z,23.36
2022-07-29T18:17:57.025Z,23.30
2022-07-29T18:20:37.506Z,23.20
2022-07-29T18:23:25.339Z,23.15
2022-07-29T18:26:12.738Z,23.10
2022-07-29T18:29:00.298Z,23.02
2022-07-29T18:31:47.483Z,22.99
2022-07-29T18:34:35.009Z,22.95
2022-07-29T18:38:02.200Z,22.91
2022-07-29T18:40:12.685Z,22.87
2022-07-29T18:42:59.945Z,22.81
2022-07-29T18:45:49.209Z,22.75
2022-07-29T18:48:38.431Z,22.70
2022-07-29T18:51:26.242Z,22.65
2022-07-29T18:54:14.151Z,22.62
2022-07-29T18:57:02.082Z,22.60
2022-07-29T18:59:53.954Z,22.57
2022-07-29T19:02:41.352Z,22.52
2022-07-29T19:05:30.221Z,22.49
2022-07-29T19:08:17.921Z,22.45
2022-07-29T19:11:05.873Z,22.43
2022-07-29T19:13:53.386Z,22.38
2022-07-29T19:16:41.362Z,22.31
2022-07-29T19:19:29.081Z,22.28
2022-07-29T19:22:16.781Z,22.24
2022-07-29T19:25:04.681Z,22.23
2022-07-29T19:27:51.929Z,22.21
2022-07-29T19:30:40.472Z,22.15
2022-07-29T19:33:27.810Z,22.13
2022-07-29T19:36:15.721Z,22.10
2022-07-29T19:39:03.656Z,22.05
2022-07-29T19:41:59.193Z,22.02
2022-07-29T19:44:44.944Z,22.02
2022-07-29T19:47:32.352Z,22.03
2022-07-29T19:50:20.152Z,22.04
2022-07-29T19:53:07.809Z,22.03
2022-07-29T19:55:55.249Z,22.04
2022-07-29T19:58:44.213Z,22.02
2022-07-29T20:01:33.619Z,22.00
2022-07-29T20:04:20.992Z,22.00
2022-07-29T20:07:12.608Z,21.99
2022-07-29T20:09:59.888Z,21.96
2022-07-29T20:12:47.883Z,21.90
2022-07-29T20:15:37.493Z,21.86
2022-07-29T20:18:25.721Z,21.82
2022-07-29T20:21:14.170Z,21.74
2022-07-29T20:24:02.978Z,21.70
2022-07-29T20:26:51.841Z,21.67
2022-07-29T20:29:40.057Z,21.58
2022-07-29T20:32:27.857Z,21.46
2022-07-29T20:35:15.690Z,21.27
2022-07-29T20:38:03.504Z,21.10
2022-07-29T20:40:51.104Z,21.01
2022-07-29T20:43:39.290Z,20.96
2022-07-29T20:46:26.900Z,20.92
2022-07-29T20:49:14.873Z,20.90
2022-07-29T20:52:02.178Z,20.87
2022-07-29T20:54:49.521Z,20.84
2022-07-29T20:57:39.034Z,20.82
2022-07-29T21:00:26.528Z,20.80
2022-07-29T21:03:13.738Z,20.77
2022-07-29T21:06:01.800Z,20.77
2022-07-29T21:08:49.611Z,20.75
2022-07-29T21:11:43.484Z,20.76
2022-07-29T21:14:30.323Z,20.76
2022-07-29T21:17:21.213Z,20.77
2022-07-29T21:20:11.498Z,20.77
2022-07-29T21:22:59.210Z,20.74
2022-07-29T21:25:48.197Z,20.72
2022-07-29T21:28:41.601Z,20.70
2022-07-29T21:31:29.369Z,20.68
2022-07-29T21:34:16.995Z,20.69
2022-07-29T21:37:04.915Z,20.65
2022-07-29T21:39:53.658Z,20.65
2022-07-29T21:42:40.925Z,20.62
2022-07-29T21:45:28.338Z,20.58
2022-07-29T21:48:16.073Z,20.58
2022-07-29T21:51:03.411Z,20.55
2022-07-29T21:53:50.692Z,20.50
2022-07-29T21:56:39.577Z,20.43
2022-07-29T21:59:26.888Z,20.40
2022-07-29T22:02:14.306Z,20.37
2022-07-29T22:05:02.116Z,20.31
2022-07-29T22:07:54.585Z,20.26
2022-07-29T22:10:38.834Z,20.25
2022-07-29T22:13:26.689Z,20.25
2022-07-29T22:16:15.172Z,20.21
2022-07-29T22:19:03.948Z,20.18
2022-07-29T22:21:51.586Z,20.20
2022-07-29T22:24:39.282Z,20.22
2022-07-29T22:27:26.449Z,20.25
2022-07-29T22:30:14.428Z,20.26
2022-07-29T22:33:01.821Z,20.28
2022-07-29T22:35:49.278Z,20.28
2022-07-29T22:38:37.005Z,20.27
2022-07-29T22:41:24.683Z,20.28
2022-07-29T22:44:11.835Z,20.30
2022-07-29T22:47:00.078Z,20.34
2022-07-29T22:49:48.153Z,20.36
2022-07-29T22:52:35.393Z,20.39
2022-07-29T22:55:22.856Z,20.38
2022-07-29T22:58:10.322Z,20.37
2022-07-29T23:00:58.086Z,20.37
2022-07-29T23:03:50.863Z,20.38
2022-07-29T23:06:35.323Z,20.37
2022-07-29T23:09:23.155Z,20.34
2022-07-29T23:12:10.731Z,20.34
2022-07-29T23:14:57.978Z,20.32
2022-07-29T23:17:45.600Z,20.30
2022-07-29T23:20:33.185Z,20.30
2022-07-29T23:23:20.584Z,20.33
2022-07-29T23:26:07.808Z,20.26
2022-07-29T23:28:54.909Z,20.23
2022-07-29T23:31:48.060Z,20.24
2022-07-29T23:34:31.443Z,20.24
2022-07-29T23:37:18.888Z,20.24
2022-07-29T23:40:10.827Z,20.22
2022-07-29T23:42:56.344Z,20.21
2022-07-29T23:45:45.193Z,20.20
2022-07-29T23:48:32.784Z,20.13
2022-07-29T23:51:20.452Z,20.12
2022-07-29T23:54:08.346Z,20.13
2022-07-29T23:56:57.231Z,20.15
2022-07-29T23:59:45.057Z,20.16
